createdAt,value
2017-09-20T00:00:09.125Z,982.06
2017-09-20T00:01:09.165Z,982.05
2017-09-20T00:02:09.209Z,982.03
2017-09-20T00:03:09.245Z,982.06
2017-09-20T00:04:09.284Z,982.05
2017-09-20T00:05:09.330Z,982.07
2017-09-20T00:06:09.369Z,982.06
2017-09-20T00:07:09.404Z,982.01
2017-09-20T00:08:09.446Z,982.04
2017-09-20T00:09:09.486Z,982.03
2017-09-20T00:10:09.525Z,982.05
2017-09-20T00:11:09.568Z,982.02
2017-09-20T00:12:09.606Z,982.01
2017-09-20T00:13:09.645Z,982.02
2017-09-20T00:14:09.687Z,982.06
2017-09-20T00:15:09.732Z,982.00
2017-09-20T00:16:09.766Z,982.04
2017-09-20T00:17:09.809Z,982.04
2017-09-20T00:18:09.851Z,982.01
2017-09-20T00:19:09.887Z,982.03
2017-09-20T00:20:09.934Z,982.05
2017-09-20T00:21:09.979Z,982.06
2017-09-20T00:22:10.006Z,982.05
2017-09-20T00:23:10.047Z,982.02
2017-09-20T00:24:10.093Z,982.04
2017-09-20T00:25:10.134Z,982.04
2017-09-20T00:26:10.168Z,982.04
2017-09-20T00:27:10.208Z,982.06
2017-09-20T00:28:10.248Z,982.07
2017-09-20T00:29:10.291Z,982.02
2017-09-20T00:30:10.327Z,982.08
2017-09-20T00:31:10.367Z,982.09
2017-09-20T00:32:10.409Z,982.09
2017-09-20T00:33:10.449Z,982.06
2017-09-20T00:34:10.489Z,982.05
2017-09-20T00:35:10.529Z,982.03
2017-09-20T00:36:10.569Z,982.10
2017-09-20T00:37:10.612Z,982.03
2017-09-20T00:38:10.648Z,982.05
2017-09-20T00:39:10.694Z,982.10
2017-09-20T00:40:10.729Z,982.06
2017-09-20T00:41:10.770Z,982.06
2017-09-20T00:42:10.810Z,982.04
2017-09-20T00:43:10.850Z,982.06
2017-09-20T00:44:10.890Z,982.11
2017-09-20T00:45:10.931Z,982.12
2017-09-20T00:46:10.970Z,982.11
2017-09-20T00:47:11.025Z,982.12
2017-09-20T00:48:11.054Z,982.15
2017-09-20T00:49:11.092Z,982.10
2017-09-20T00:50:11.128Z,982.15
2017-09-20T00:51:11.178Z,982.11
2017-09-20T00:52:11.211Z,982.12
2017-09-20T00:53:11.250Z,982.12
2017-09-20T00:54:11.289Z,982.10
2017-09-20T00:55:11.331Z,982.14
2017-09-20T00:56:11.371Z,982.10
2017-09-20T00:57:11.412Z,982.16
2017-09-20T00:58:11.450Z,982.17
2017-09-20T00:59:11.490Z,982.15
2017-09-20T01:00:11.533Z,982.14
2017-09-20T01:01:11.571Z,982.14
2017-09-20T01:02:11.611Z,982.17
2017-09-20T01:03:11.652Z,982.20
2017-09-20T01:04:11.692Z,982.19
2017-09-20T01:05:11.733Z,982.15
2017-09-20T01:06:11.775Z,982.14
2017-09-20T01:07:11.826Z,982.15
2017-09-20T01:08:11.851Z,982.10
2017-09-20T01:09:11.891Z,982.11
2017-09-20T01:10:11.930Z,982.10
2017-09-20T01:11:11.976Z,982.16
2017-09-20T01:12:12.040Z,982.12
2017-09-20T01:13:12.051Z,982.19
2017-09-20T01:14:12.091Z,982.14
2017-09-20T01:15:12.133Z,982.14
2017-09-20T01:16:12.175Z,982.15
2017-09-20T01:17:12.211Z,982.18
2017-09-20T01:18:12.253Z,982.18
2017-09-20T01:19:12.294Z,982.14
2017-09-20T01:20:12.331Z,982.17
2017-09-20T01:21:12.372Z,982.15
2017-09-20T01:22:12.416Z,982.11
2017-09-20T01:23:12.451Z,982.15
2017-09-20T01:24:12.492Z,982.14
2017-09-20T01:25:12.533Z,982.15
2017-09-20T01:26:12.576Z,982.13
2017-09-20T01:27:12.614Z,982.13
2017-09-20T01:28:12.655Z,982.17
2017-09-20T01:29:12.692Z,982.16
2017-09-20T01:30:12.733Z,982.14
2017-09-20T01:31:12.773Z,982.15
2017-09-20T01:32:12.811Z,982.10
2017-09-20T01:33:12.853Z,982.15
2017-09-20T01:34:12.893Z,982.17
2017-09-20T01:35:12.934Z,982.16
2017-09-20T01:36:12.972Z,982.14
2017-09-20T01:37:13.012Z,982.13
2017-09-20T01:38:13.053Z,982.14
2017-09-20T01:39:13.093Z,982.16
2017-09-20T01:40:13.134Z,982.19
2017-09-20T01:41:13.173Z,982.13
2017-09-20T01:42:13.211Z,982.14
2017-09-20T01:43:13.252Z,982.14
2017-09-20T01:44:13.296Z,982.14
2017-09-20T01:45:13.334Z,982.17
2017-09-20T01:46:13.373Z,982.16
2017-09-20T01:47:13.416Z,982.15
2017-09-20T01:48:13.452Z,982.19
2017-09-20T01:49:13.494Z,982.13
2017-09-20T01:50:13.544Z,982.21
2017-09-20T01:51:13.574Z,982.21
2017-09-20T01:52:13.617Z,982.20
2017-09-20T01:53:13.653Z,982.22
2017-09-20T01:54:13.692Z,982.28
2017-09-20T01:55:13.733Z,982.23
2017-09-20T01:56:13.776Z,982.24
2017-09-20T01:57:13.813Z,982.24
2017-09-20T01:58:13.853Z,982.25
2017-09-20T01:59:13.896Z,982.24
2017-09-20T02:00:13.933Z,982.22
2017-09-20T02:01:13.975Z,982.24
2017-09-20T02:02:14.013Z,982.22
2017-09-20T02:03:14.055Z,982.17
2017-09-20T02:04:14.097Z,982.18
2017-09-20T02:05:14.132Z,982.14
2017-09-20T02:06:14.172Z,982.16
2017-09-20T02:07:14.214Z,982.18
2017-09-20T02:08:14.257Z,982.21
2017-09-20T02:09:14.293Z,982.18
2017-09-20T02:10:14.333Z,982.18
2017-09-20T02:11:14.373Z,982.22
2017-09-20T02:12:14.411Z,982.23
2017-09-20T02:13:14.455Z,982.18
2017-09-20T02:14:14.499Z,982.16
2017-09-20T02:15:14.530Z,982.18
2017-09-20T02:16:14.571Z,982.20
2017-09-20T02:17:14.617Z,982.17
2017-09-20T02:18:14.651Z,982.19
2017-09-20T02:19:14.691Z,982.19
2017-09-20T02:20:14.733Z,982.15
2017-09-20T02:21:14.773Z,982.18
2017-09-20T02:22:14.812Z,982.20
2017-09-20T02:23:14.852Z,982.18
2017-09-20T02:24:14.895Z,982.15
2017-09-20T02:25:14.935Z,982.13
2017-09-20T02:26:14.972Z,982.16
2017-09-20T02:27:15.012Z,982.14
2017-09-20T02:28:15.052Z,982.18
2017-09-20T02:29:15.096Z,982.18
2017-09-20T02:30:15.133Z,982.18
2017-09-20T02:31:15.174Z,982.20
2017-09-20T02:32:15.217Z,982.20
2017-09-20T02:33:15.252Z,982.22
2017-09-20T02:34:15.293Z,982.20
2017-09-20T02:35:15.332Z,982.14
2017-09-20T02:36:15.373Z,982.18
2017-09-20T02:37:15.413Z,982.16
2017-09-20T02:38:15.451Z,982.21
2017-09-20T02:39:15.494Z,982.18
2017-09-20T02:40:15.533Z,982.15
2017-09-20T02:41:15.571Z,982.18
2017-09-20T02:42:15.615Z,982.18
2017-09-20T02:43:15.651Z,982.19
2017-09-20T02:44:15.692Z,982.14
2017-09-20T02:45:15.731Z,982.17
2017-09-20T02:46:15.772Z,982.17
2017-09-20T02:47:15.810Z,982.18
2017-09-20T02:48:15.851Z,982.18
2017-09-20T02:49:15.898Z,982.17
2017-09-20T02:50:15.932Z,982.19
2017-09-20T02:51:15.972Z,982.22
2017-09-20T02:52:16.012Z,982.24
2017-09-20T02:53:16.053Z,982.20
2017-09-20T02:54:16.090Z,982.22
2017-09-20T02:55:16.132Z,982.26
2017-09-20T02:56:16.170Z,982.28
2017-09-20T02:57:16.213Z,982.23
2017-09-20T02:58:16.248Z,982.29
2017-09-20T02:59:16.290Z,982.30
2017-09-20T03:00:16.336Z,982.29
2017-09-20T03:01:16.379Z,982.30
2017-09-20T03:02:16.414Z,982.32
2017-09-20T03:03:16.452Z,982.33
2017-09-20T03:04:16.488Z,982.31
2017-09-20T03:05:16.528Z,982.33
2017-09-20T03:06:16.577Z,982.31
2017-09-20T03:07:16.609Z,982.37
2017-09-20T03:08:16.648Z,982.32
2017-09-20T03:09:16.690Z,982.37
2017-09-20T03:10:16.727Z,982.35
2017-09-20T03:11:16.769Z,982.36
2017-09-20T03:12:16.807Z,982.37
2017-09-20T03:13:16.849Z,982.36
2017-09-20T03:14:16.888Z,982.33
2017-09-20T03:15:16.928Z,982.35
2017-09-20T03:16:16.969Z,982.31
2017-09-20T03:17:17.009Z,982.31
2017-09-20T03:18:17.049Z,982.33
2017-09-20T03:19:17.088Z,982.35
2017-09-20T03:20:17.128Z,982.31
2017-09-20T03:21:17.169Z,982.39
2017-09-20T03:22:17.208Z,982.38
2017-09-20T03:23:17.250Z,982.38
2017-09-20T03:24:17.288Z,982.34
2017-09-20T03:25:17.329Z,982.35
2017-09-20T03:26:17.369Z,982.38
2017-09-20T03:27:17.409Z,982.34
2017-09-20T03:28:17.449Z,982.36
2017-09-20T03:29:17.487Z,982.35
2017-09-20T03:30:17.531Z,982.34
2017-09-20T03:31:17.568Z,982.34
2017-09-20T03:32:17.607Z,982.31
2017-09-20T03:33:17.648Z,982.31
2017-09-20T03:34:17.687Z,982.31
2017-09-20T03:35:17.725Z,982.31
2017-09-20T03:36:17.768Z,982.33
2017-09-20T03:37:17.808Z,982.32
2017-09-20T03:38:17.846Z,982.30
2017-09-20T03:39:17.888Z,982.31
2017-09-20T03:40:17.926Z,982.29
2017-09-20T03:41:17.965Z,982.31
2017-09-20T03:42:18.011Z,982.32
2017-09-20T03:43:18.045Z,982.32
2017-09-20T03:44:18.085Z,982.35
2017-09-20T03:45:18.126Z,982.35
2017-09-20T03:46:18.167Z,982.30
2017-09-20T03:47:18.205Z,982.29
2017-09-20T03:48:18.247Z,982.34
2017-09-20T03:49:18.287Z,982.32
2017-09-20T03:50:18.334Z,982.37
2017-09-20T03:51:18.363Z,982.35
2017-09-20T03:52:18.408Z,982.33
2017-09-20T03:53:18.447Z,982.34
2017-09-20T03:54:18.485Z,982.35
2017-09-20T03:55:18.523Z,982.40
2017-09-20T03:56:18.563Z,982.36
2017-09-20T03:57:18.607Z,982.42
2017-09-20T03:58:18.645Z,982.33
2017-09-20T03:59:18.681Z,982.39
2017-09-20T04:00:18.732Z,982.40
2017-09-20T04:01:18.768Z,982.40
2017-09-20T04:02:18.803Z,982.43
2017-09-20T04:03:18.842Z,982.42
2017-09-20T04:04:18.885Z,982.42
2017-09-20T04:05:18.926Z,982.46
2017-09-20T04:06:18.961Z,982.43
2017-09-20T04:07:19.002Z,982.42
2017-09-20T04:08:19.045Z,982.50
2017-09-20T04:09:19.083Z,982.51
2017-09-20T04:10:19.122Z,982.48
2017-09-20T04:11:19.161Z,982.49
2017-09-20T04:12:19.203Z,982.49
2017-09-20T04:13:19.241Z,982.52
2017-09-20T04:14:19.286Z,982.47
2017-09-20T04:15:19.320Z,982.49
2017-09-20T04:16:19.360Z,982.52
2017-09-20T04:17:19.406Z,982.52
2017-09-20T04:18:19.439Z,982.54
2017-09-20T04:19:19.482Z,982.51
2017-09-20T04:20:19.524Z,982.50
2017-09-20T04:21:19.561Z,982.53
2017-09-20T04:22:19.604Z,982.52
2017-09-20T04:23:19.639Z,982.54
2017-09-20T04:24:19.679Z,982.52
2017-09-20T04:25:19.723Z,982.54
2017-09-20T04:26:19.763Z,982.59
2017-09-20T04:27:19.798Z,982.60
2017-09-20T04:28:19.851Z,982.59
2017-09-20T04:29:19.881Z,982.62
2017-09-20T04:30:19.917Z,982.61
2017-09-20T04:31:19.959Z,982.66
2017-09-20T04:32:20.000Z,982.64
2017-09-20T04:33:20.038Z,982.68
2017-09-20T04:34:20.081Z,982.69
2017-09-20T04:35:20.121Z,982.67
2017-09-20T04:36:20.240Z,982.70
2017-09-20T04:37:20.198Z,982.71
2017-09-20T04:38:20.237Z,982.73
2017-09-20T04:39:20.276Z,982.72
2017-09-20T04:40:20.316Z,982.76
2017-09-20T04:41:20.458Z,982.73
2017-09-20T04:42:20.395Z,982.77
2017-09-20T04:43:20.436Z,982.79
2017-09-20T04:44:20.486Z,982.74
2017-09-20T04:45:20.521Z,982.81
2017-09-20T04:46:20.556Z,982.82
2017-09-20T04:47:20.674Z,982.80
2017-09-20T04:48:20.710Z,982.84
2017-09-20T04:49:20.685Z,982.84
2017-09-20T04:50:20.833Z,982.85
2017-09-20T04:51:20.756Z,982.87
2017-09-20T04:52:20.793Z,982.93
2017-09-20T04:53:20.834Z,982.87
2017-09-20T04:54:20.880Z,982.91
2017-09-20T04:55:20.915Z,982.89
2017-09-20T04:56:20.954Z,982.93
2017-09-20T04:57:20.998Z,982.91
2017-09-20T04:58:21.033Z,982.87
2017-09-20T04:59:21.074Z,982.90
2017-09-20T05:00:21.113Z,982.92
2017-09-20T05:01:21.153Z,982.91
2017-09-20T05:02:21.192Z,982.95
2017-09-20T05:03:21.238Z,982.92
2017-09-20T05:04:21.272Z,982.91
2017-09-20T05:05:21.316Z,982.92
2017-09-20T05:06:21.350Z,982.95
2017-09-20T05:07:21.390Z,982.91
2017-09-20T05:08:21.440Z,982.95
2017-09-20T05:09:21.476Z,982.95
2017-09-20T05:10:21.510Z,982.91
2017-09-20T05:11:21.552Z,982.89
2017-09-20T05:12:21.590Z,982.90
2017-09-20T05:13:21.630Z,982.93
2017-09-20T05:14:21.674Z,982.97
2017-09-20T05:15:21.713Z,982.93
2017-09-20T05:16:21.811Z,982.95
2017-09-20T05:17:21.792Z,982.98
2017-09-20T05:18:21.838Z,982.98
2017-09-20T05:19:21.868Z,982.97
2017-09-20T05:20:21.911Z,982.98
2017-09-20T05:21:21.948Z,982.96
2017-09-20T05:22:21.987Z,982.99
2017-09-20T05:23:22.032Z,982.98
2017-09-20T05:24:22.068Z,983.01
2017-09-20T05:25:22.110Z,982.99
2017-09-20T05:26:22.148Z,983.04
2017-09-20T05:27:22.192Z,983.00
2017-09-20T05:28:22.228Z,982.99
2017-09-20T05:29:22.269Z,983.00
2017-09-20T05:30:22.307Z,983.04
2017-09-20T05:31:22.349Z,983.07
2017-09-20T05:32:22.388Z,983.08
2017-09-20T05:33:22.426Z,983.08
2017-09-20T05:34:22.465Z,983.09
2017-09-20T05:35:22.508Z,983.11
2017-09-20T05:36:22.545Z,983.14
2017-09-20T05:37:22.587Z,983.15
2017-09-20T05:38:22.622Z,983.16
2017-09-20T05:39:22.665Z,983.20
2017-09-20T05:40:22.703Z,983.17
2017-09-20T05:41:22.741Z,983.14
2017-09-20T05:42:22.784Z,983.19
2017-09-20T05:43:22.821Z,983.17
2017-09-20T05:44:22.857Z,983.19
2017-09-20T05:45:22.908Z,983.19
2017-09-20T05:46:22.938Z,983.17
2017-09-20T05:47:22.977Z,983.23
2017-09-20T05:48:23.031Z,983.22
2017-09-20T05:49:23.060Z,983.18
2017-09-20T05:50:23.096Z,983.22
2017-09-20T05:51:23.135Z,983.25
2017-09-20T05:52:23.176Z,983.24
2017-09-20T05:53:23.213Z,983.26
2017-09-20T05:54:23.254Z,983.24
2017-09-20T05:55:23.294Z,983.24
2017-09-20T05:56:23.332Z,983.29
2017-09-20T05:57:23.373Z,983.24
2017-09-20T05:58:23.413Z,983.25
2017-09-20T05:59:23.455Z,983.25
2017-09-20T06:00:23.497Z,983.25
2017-09-20T06:01:23.535Z,983.21
2017-09-20T06:02:23.617Z,983.27
2017-09-20T06:03:25.185Z,983.25
2017-09-20T06:04:24.660Z,983.24
2017-09-20T06:05:23.814Z,983.22
2017-09-20T06:06:23.804Z,983.21
2017-09-20T06:07:23.807Z,983.14
2017-09-20T06:08:23.930Z,983.24
2017-09-20T06:09:23.876Z,983.26
2017-09-20T06:10:23.970Z,983.26
2017-09-20T06:11:24.025Z,983.28
2017-09-20T06:12:24.062Z,983.24
2017-09-20T06:13:24.022Z,983.32
2017-09-20T06:14:24.090Z,983.32
2017-09-20T06:15:24.202Z,983.30
2017-09-20T06:16:24.141Z,983.29
2017-09-20T06:17:24.268Z,983.28
2017-09-20T06:18:24.253Z,983.32
2017-09-20T06:19:24.278Z,983.30
2017-09-20T06:20:24.303Z,983.29
2017-09-20T06:21:24.344Z,983.31
2017-09-20T06:22:24.386Z,983.34
2017-09-20T06:23:24.432Z,983.29
2017-09-20T06:24:24.525Z,983.31
2017-09-20T06:25:24.508Z,983.29
2017-09-20T06:26:24.553Z,983.31
2017-09-20T06:27:24.595Z,983.29
2017-09-20T06:28:24.625Z,983.29
2017-09-20T06:29:24.713Z,983.30
2017-09-20T06:30:24.712Z,983.27
2017-09-20T06:31:24.752Z,983.33
2017-09-20T06:32:24.831Z,983.33
2017-09-20T06:33:24.833Z,983.32
2017-09-20T06:34:24.877Z,983.31
2017-09-20T06:35:24.917Z,983.37
2017-09-20T06:36:24.959Z,983.35
2017-09-20T06:37:24.998Z,983.37
2017-09-20T06:38:25.053Z,983.40
2017-09-20T06:39:25.084Z,983.40
2017-09-20T06:40:25.120Z,983.40
2017-09-20T06:41:25.163Z,983.43
2017-09-20T06:42:25.202Z,983.44
2017-09-20T06:43:25.249Z,983.42
2017-09-20T06:44:25.295Z,983.43
2017-09-20T06:45:25.339Z,983.48
2017-09-20T06:46:25.369Z,983.45
2017-09-20T06:47:25.408Z,983.48
2017-09-20T06:48:25.453Z,983.46
2017-09-20T06:49:25.492Z,983.50
2017-09-20T06:50:25.536Z,983.46
2017-09-20T06:51:25.574Z,983.45
2017-09-20T06:52:25.619Z,983.46
2017-09-20T06:53:25.658Z,983.46
2017-09-20T06:54:25.707Z,983.42
2017-09-20T06:55:25.741Z,983.48
2017-09-20T06:56:25.783Z,983.48
2017-09-20T06:57:25.826Z,983.45
2017-09-20T06:58:25.864Z,983.45
2017-09-20T06:59:25.906Z,983.52
2017-09-20T07:00:26.027Z,983.50
2017-09-20T07:01:25.991Z,983.50
2017-09-20T07:02:26.039Z,983.52
2017-09-20T07:03:26.076Z,983.50
2017-09-20T07:04:26.113Z,983.47
2017-09-20T07:05:26.160Z,983.50
2017-09-20T07:06:26.199Z,983.47
2017-09-20T07:07:26.238Z,983.49
2017-09-20T07:08:26.280Z,983.46
2017-09-20T07:09:26.320Z,983.48
2017-09-20T07:10:26.363Z,983.49
2017-09-20T07:11:26.432Z,983.52
2017-09-20T07:12:26.462Z,983.52
2017-09-20T07:13:26.486Z,983.54
2017-09-20T07:14:26.527Z,983.55
2017-09-20T07:15:26.577Z,983.53
2017-09-20T07:16:26.653Z,983.59
2017-09-20T07:17:26.677Z,983.59
2017-09-20T07:18:26.697Z,983.59
2017-09-20T07:19:26.734Z,983.58
2017-09-20T07:20:26.840Z,983.55
2017-09-20T07:21:26.816Z,983.60
2017-09-20T07:22:26.858Z,983.56
2017-09-20T07:23:26.902Z,983.61
2017-09-20T07:24:26.950Z,983.55
2017-09-20T07:25:26.980Z,983.59
2017-09-20T07:26:27.022Z,983.58
2017-09-20T07:27:27.073Z,983.53
2017-09-20T07:28:27.128Z,983.53
2017-09-20T07:29:27.150Z,983.53
2017-09-20T07:30:27.188Z,983.62
2017-09-20T07:31:27.231Z,983.56
2017-09-20T07:32:27.273Z,983.65
2017-09-20T07:33:27.310Z,983.60
2017-09-20T07:34:28.370Z,983.60
2017-09-20T07:35:27.395Z,983.59
2017-09-20T07:36:27.443Z,983.63
2017-09-20T07:37:27.496Z,983.59
2017-09-20T07:38:27.520Z,983.62
2017-09-20T07:39:27.565Z,983.65
2017-09-20T07:40:27.603Z,983.66
2017-09-20T07:41:27.652Z,983.67
2017-09-20T07:42:27.687Z,983.68
2017-09-20T07:43:27.725Z,983.73
2017-09-20T07:44:27.769Z,983.69
2017-09-20T07:45:27.811Z,983.75
2017-09-20T07:46:27.849Z,983.70
2017-09-20T07:47:27.893Z,983.73
2017-09-20T07:48:27.936Z,983.73
2017-09-20T07:49:27.990Z,983.81
2017-09-20T07:50:28.020Z,983.78
2017-09-20T07:51:28.063Z,983.79
2017-09-20T07:52:28.110Z,983.82
2017-09-20T07:53:28.145Z,983.88
2017-09-20T07:54:28.179Z,983.79
2017-09-20T07:55:28.312Z,983.80
2017-09-20T07:56:28.270Z,983.81
2017-09-20T07:57:28.308Z,983.85
2017-09-20T07:58:28.357Z,983.86
2017-09-20T07:59:28.391Z,983.81
2017-09-20T08:00:28.437Z,983.85
2017-09-20T08:01:28.482Z,983.85
2017-09-20T08:02:28.515Z,983.86
2017-09-20T08:03:28.662Z,983.84
2017-09-20T08:04:28.649Z,983.81
2017-09-20T08:05:28.643Z,983.86
2017-09-20T08:06:28.685Z,983.88
2017-09-20T08:07:28.726Z,983.84
2017-09-20T08:08:28.773Z,983.87
2017-09-20T08:09:28.812Z,983.89
2017-09-20T08:10:28.871Z,983.83
2017-09-20T08:11:28.896Z,983.89
2017-09-20T08:12:28.943Z,983.83
2017-09-20T08:13:28.976Z,983.82
2017-09-20T08:14:29.031Z,983.86
2017-09-20T08:15:29.062Z,983.87
2017-09-20T08:16:29.103Z,983.87
2017-09-20T08:17:29.164Z,983.82
2017-09-20T08:18:29.186Z,983.81
2017-09-20T08:19:29.232Z,983.86
2017-09-20T08:20:29.282Z,983.81
2017-09-20T08:21:29.316Z,983.89
2017-09-20T08:22:29.358Z,983.88
2017-09-20T08:23:29.398Z,983.88
2017-09-20T08:24:29.451Z,983.90
2017-09-20T08:25:29.485Z,983.94
2017-09-20T08:26:29.527Z,983.85
2017-09-20T08:27:29.566Z,983.93
2017-09-20T08:28:29.609Z,983.89
2017-09-20T08:29:29.659Z,983.89
2017-09-20T08:30:29.693Z,983.94
2017-09-20T08:31:29.734Z,983.89
2017-09-20T08:32:29.779Z,983.92
2017-09-20T08:33:29.818Z,983.93
2017-09-20T08:34:29.862Z,983.90
2017-09-20T08:35:29.905Z,983.94
2017-09-20T08:36:29.950Z,983.93
2017-09-20T08:37:29.991Z,983.94
2017-09-20T08:38:30.030Z,983.92
2017-09-20T08:39:30.073Z,983.95
2017-09-20T08:40:30.116Z,983.99
2017-09-20T08:41:30.156Z,983.94
2017-09-20T08:42:30.208Z,983.92
2017-09-20T08:43:30.241Z,983.98
2017-09-20T08:44:30.283Z,983.96
2017-09-20T08:45:30.324Z,983.99
2017-09-20T08:46:30.368Z,983.94
2017-09-20T08:47:30.412Z,983.96
2017-09-20T08:48:30.452Z,983.94
2017-09-20T08:49:30.495Z,983.95
2017-09-20T08:50:30.535Z,983.93
2017-09-20T08:51:30.581Z,983.93
2017-09-20T08:52:30.625Z,983.92
2017-09-20T08:53:30.665Z,983.94
2017-09-20T08:54:30.711Z,983.95
2017-09-20T08:55:30.748Z,983.99
2017-09-20T08:56:30.792Z,984.00
2017-09-20T08:57:30.837Z,984.01
2017-09-20T08:58:30.876Z,983.97
2017-09-20T08:59:30.924Z,983.94
2017-09-20T09:00:30.959Z,983.97
2017-09-20T09:01:31.005Z,983.99
2017-09-20T09:02:31.044Z,983.99
2017-09-20T09:03:31.085Z,984.00
2017-09-20T09:04:31.129Z,983.99
2017-09-20T09:05:31.171Z,983.98
2017-09-20T09:06:31.223Z,984.00
2017-09-20T09:07:31.256Z,984.00
2017-09-20T09:08:31.295Z,984.00
2017-09-20T09:09:31.343Z,983.98
2017-09-20T09:10:31.381Z,983.96
2017-09-20T09:11:31.422Z,983.99
2017-09-20T09:12:31.465Z,984.00
2017-09-20T09:13:31.505Z,983.96
2017-09-20T09:14:31.547Z,983.96
2017-09-20T09:15:31.612Z,983.98
2017-09-20T09:16:31.635Z,983.96
2017-09-20T09:17:31.677Z,983.99
2017-09-20T09:18:31.717Z,984.02
2017-09-20T09:19:31.828Z,983.99
2017-09-20T09:20:31.805Z,984.00
2017-09-20T09:21:31.901Z,984.03
2017-09-20T09:22:31.886Z,983.97
2017-09-20T09:23:31.930Z,984.00
2017-09-20T09:24:31.975Z,984.02
2017-09-20T09:25:32.014Z,984.01
2017-09-20T09:26:32.057Z,984.02
2017-09-20T09:27:32.099Z,983.98
2017-09-20T09:28:32.140Z,984.00
2017-09-20T09:29:32.186Z,984.04
2017-09-20T09:30:32.223Z,984.09
2017-09-20T09:31:32.270Z,984.04
2017-09-20T09:32:32.311Z,984.03
2017-09-20T09:33:32.359Z,984.05
2017-09-20T09:34:32.397Z,984.12
2017-09-20T09:35:32.441Z,984.08
2017-09-20T09:36:32.483Z,984.10
2017-09-20T09:37:32.523Z,984.04
2017-09-20T09:38:32.566Z,984.13
2017-09-20T09:39:32.609Z,984.07
2017-09-20T09:40:32.654Z,984.09
2017-09-20T09:41:32.748Z,984.09
2017-09-20T09:42:32.738Z,984.14
2017-09-20T09:43:32.781Z,984.05
2017-09-20T09:44:32.822Z,984.07
2017-09-20T09:45:32.865Z,984.01
2017-09-20T09:46:32.955Z,983.97
2017-09-20T09:47:32.949Z,984.01
2017-09-20T09:48:32.994Z,984.00
2017-09-20T09:49:33.051Z,983.97
2017-09-20T09:50:33.078Z,983.99
2017-09-20T09:51:33.142Z,984.06
2017-09-20T09:52:33.164Z,984.11
2017-09-20T09:53:33.206Z,984.07
2017-09-20T09:54:33.250Z,984.03
2017-09-20T09:55:33.292Z,984.01
2017-09-20T09:56:33.335Z,984.06
2017-09-20T09:57:33.376Z,984.05
2017-09-20T09:58:33.418Z,984.05
2017-09-20T09:59:33.464Z,984.06
2017-09-20T10:00:33.517Z,984.06
2017-09-20T10:01:33.549Z,984.06
2017-09-20T10:02:33.588Z,984.07
2017-09-20T10:03:33.634Z,984.07
2017-09-20T10:04:33.678Z,984.10
2017-09-20T10:05:33.722Z,984.10
2017-09-20T10:06:33.759Z,984.08
2017-09-20T10:07:33.801Z,984.07
2017-09-20T10:08:33.845Z,984.09
2017-09-20T10:09:33.886Z,984.09
2017-09-20T10:10:33.932Z,984.12
2017-09-20T10:11:33.974Z,984.09
2017-09-20T10:12:34.035Z,984.13
2017-09-20T10:13:34.066Z,984.04
2017-09-20T10:14:34.100Z,984.09
2017-09-20T10:15:34.185Z,984.09
2017-09-20T10:16:34.193Z,984.09
2017-09-20T10:17:34.232Z,984.10
2017-09-20T10:18:34.273Z,984.08
2017-09-20T10:19:34.315Z,984.07
2017-09-20T10:20:34.356Z,984.11
2017-09-20T10:21:34.398Z,984.09
2017-09-20T10:22:34.443Z,984.07
2017-09-20T10:23:34.485Z,984.09
2017-09-20T10:24:34.530Z,984.03
2017-09-20T10:25:34.581Z,984.02
2017-09-20T10:26:34.614Z,983.98
2017-09-20T10:27:34.657Z,984.05
2017-09-20T10:28:34.702Z,984.02
2017-09-20T10:29:34.746Z,984.02
2017-09-20T10:30:34.788Z,984.03
2017-09-20T10:31:34.830Z,984.00
2017-09-20T10:32:34.885Z,983.97
2017-09-20T10:33:34.916Z,984.06
2017-09-20T10:34:34.958Z,984.03
2017-09-20T10:35:35.001Z,983.97
2017-09-20T10:36:35.042Z,984.04
2017-09-20T10:37:35.093Z,984.01
2017-09-20T10:38:35.133Z,984.04
2017-09-20T10:39:35.173Z,983.97
2017-09-20T10:40:35.213Z,983.96
2017-09-20T10:41:35.266Z,983.97
2017-09-20T10:42:35.301Z,983.99
2017-09-20T10:43:35.345Z,983.97
2017-09-20T10:44:35.400Z,984.02
2017-09-20T10:45:35.429Z,983.97
2017-09-20T10:46:35.474Z,983.98
2017-09-20T10:47:35.519Z,984.00
2017-09-20T10:48:35.561Z,984.02
2017-09-20T10:49:35.601Z,984.00
2017-09-20T10:50:35.644Z,984.02
2017-09-20T10:51:35.691Z,984.03
2017-09-20T10:52:35.731Z,984.04
2017-09-20T10:53:35.781Z,983.99
2017-09-20T10:54:35.818Z,983.92
2017-09-20T10:55:35.871Z,983.91
2017-09-20T10:56:35.907Z,983.94
2017-09-20T10:57:35.948Z,983.88
2017-09-20T10:58:35.990Z,983.89
2017-09-20T10:59:36.036Z,983.86
2017-09-20T11:00:36.103Z,983.88
2017-09-20T11:01:36.121Z,983.87
2017-09-20T11:02:36.169Z,983.94
2017-09-20T11:03:36.208Z,983.93
2017-09-20T11:04:36.257Z,983.86
2017-09-20T11:05:36.306Z,983.86
2017-09-20T11:06:36.346Z,983.85
2017-09-20T11:07:36.388Z,983.87
2017-09-20T11:08:36.425Z,983.89
2017-09-20T11:09:36.465Z,983.87
2017-09-20T11:10:36.509Z,983.86
2017-09-20T11:11:36.601Z,983.88
2017-09-20T11:12:36.596Z,983.85
2017-09-20T11:13:36.636Z,983.89
2017-09-20T11:14:36.683Z,983.85
2017-09-20T11:15:36.721Z,983.82
2017-09-20T11:16:36.768Z,983.87
2017-09-20T11:17:36.808Z,983.81
2017-09-20T11:18:36.853Z,983.80
2017-09-20T11:19:36.893Z,983.80
2017-09-20T11:20:36.933Z,983.82
2017-09-20T11:21:36.983Z,983.80
2017-09-20T11:22:37.019Z,983.78
2017-09-20T11:23:37.066Z,983.78
2017-09-20T11:24:37.107Z,983.77
2017-09-20T11:25:37.150Z,983.77
2017-09-20T11:26:37.189Z,983.70
2017-09-20T11:27:37.236Z,983.72
2017-09-20T11:28:37.276Z,983.67
2017-09-20T11:29:37.323Z,983.69
2017-09-20T11:30:37.360Z,983.69
2017-09-20T11:31:37.402Z,983.67
2017-09-20T11:32:37.445Z,983.67
2017-09-20T11:33:37.488Z,983.67
2017-09-20T11:34:37.537Z,983.69
2017-09-20T11:35:37.590Z,983.72
2017-09-20T11:36:37.617Z,983.69
2017-09-20T11:37:37.660Z,983.69
2017-09-20T11:38:37.743Z,983.68
2017-09-20T11:39:37.759Z,983.67
2017-09-20T11:40:37.784Z,983.66
2017-09-20T11:41:37.837Z,983.61
2017-09-20T11:42:37.873Z,983.71
2017-09-20T11:43:37.916Z,983.64
2017-09-20T11:44:37.956Z,983.62
2017-09-20T11:45:38.001Z,983.64
2017-09-20T11:46:38.045Z,983.62
2017-09-20T11:47:38.085Z,983.61
2017-09-20T11:48:38.128Z,983.59
2017-09-20T11:49:38.172Z,983.59
2017-09-20T11:50:38.213Z,983.57
2017-09-20T11:51:38.256Z,983.53
2017-09-20T11:52:38.356Z,983.52
2017-09-20T11:53:38.349Z,983.54
2017-09-20T11:54:38.383Z,983.53
2017-09-20T11:55:38.437Z,983.51
2017-09-20T11:56:38.469Z,983.50
2017-09-20T11:57:38.511Z,983.44
2017-09-20T11:58:38.556Z,983.51
2017-09-20T11:59:38.597Z,983.46
2017-09-20T12:00:38.642Z,983.50
2017-09-20T12:01:38.683Z,983.50
2017-09-20T12:02:38.736Z,983.51
2017-09-20T12:03:38.775Z,983.45
2017-09-20T12:04:38.811Z,983.51
2017-09-20T12:05:38.857Z,983.42
2017-09-20T12:06:38.899Z,983.46
2017-09-20T12:07:38.939Z,983.45
2017-09-20T12:08:38.982Z,983.36
2017-09-20T12:09:39.030Z,983.35
2017-09-20T12:10:39.149Z,983.39
2017-09-20T12:11:39.112Z,983.36
2017-09-20T12:12:39.161Z,983.33
2017-09-20T12:13:39.199Z,983.31
2017-09-20T12:14:39.241Z,983.33
2017-09-20T12:15:39.285Z,983.35
2017-09-20T12:16:39.380Z,983.36
2017-09-20T12:17:39.372Z,983.38
2017-09-20T12:18:39.407Z,983.36
2017-09-20T12:19:39.455Z,983.38
2017-09-20T12:20:39.492Z,983.35
2017-09-20T12:21:39.585Z,983.42
2017-09-20T12:22:39.581Z,983.36
2017-09-20T12:23:39.632Z,983.39
2017-09-20T12:24:39.667Z,983.38
2017-09-20T12:25:39.709Z,983.37
2017-09-20T12:26:39.747Z,983.36
2017-09-20T12:27:39.793Z,983.38
2017-09-20T12:28:39.838Z,983.37